Terminal Aerodrome Forecast
Issued by NWS

Home | Current Version | Previous Version | Text Only | Print | Product List | Glossary On
Versions: 1 2 3 4 5 6 7 8 9 10 11 12 13 14 15 16 17 18 19 20 21 22 23 24
000
FTUS42 KTAE 180435 AAB
TAFVLD
TAF AMD
KVLD 180435Z 1805/1824 22004KT 6SM FU BKN006
     FM180600 00000KT 1/2SM FG BKN002
     FM180800 00000KT 1/4SM FG VV001
     FM181500 00000KT 1SM BR BKN002
     FM181600 VRB03KT P6SM BKN015
     FM181700 18005KT P6SM BKN050=

USA.gov is the U.S. government's official web portal to all federal, state and local government web resources and services.